createdAt,value
2019-06-26T00:01:43.222Z,23.00
2019-06-26T00:04:10.945Z,22.90
2019-06-26T00:06:38.636Z,22.90
2019-06-26T00:09:08.328Z,22.90
2019-06-26T00:11:36.027Z,22.80
2019-06-26T00:14:03.828Z,22.60
2019-06-26T00:16:31.499Z,22.60
2019-06-26T00:18:59.223Z,22.60
2019-06-26T00:21:26.952Z,22.50
2019-06-26T00:23:54.665Z,22.40
2019-06-26T00:26:22.335Z,22.20
2019-06-26T00:28:50.025Z,22.00
2019-06-26T00:31:17.719Z,22.00
2019-06-26T00:33:45.431Z,21.90
2019-06-26T00:36:13.147Z,21.90
2019-06-26T00:38:40.941Z,22.00
2019-06-26T00:41:08.620Z,21.90
2019-06-26T00:43:42.224Z,21.70
2019-06-26T00:46:06.180Z,21.60
2019-06-26T00:48:33.909Z,21.70
2019-06-26T00:51:01.646Z,21.60
2019-06-26T00:53:29.344Z,21.60
2019-06-26T00:55:57.071Z,21.60
2019-06-26T00:58:24.752Z,21.70
2019-06-26T01:00:53.367Z,21.60
2019-06-26T01:03:21.078Z,21.50
2019-06-26T01:05:48.773Z,21.40
2019-06-26T01:08:16.594Z,21.30
2019-06-26T01:10:44.285Z,21.20
2019-06-26T01:13:11.996Z,21.20
2019-06-26T01:15:39.677Z,21.20
2019-06-26T01:18:07.482Z,21.10
2019-06-26T01:20:35.213Z,21.00
2019-06-26T01:23:02.960Z,21.00
2019-06-26T01:25:30.723Z,21.00
2019-06-26T01:27:58.497Z,20.90
2019-06-26T01:30:26.281Z,20.90
2019-06-26T01:32:53.979Z,21.00
2019-06-26T01:35:21.680Z,21.00
2019-06-26T01:37:49.384Z,20.90
2019-06-26T01:40:17.171Z,21.00
2019-06-26T01:42:44.874Z,20.90
2019-06-26T01:45:12.669Z,20.90
2019-06-26T01:47:40.356Z,20.80
2019-06-26T01:50:08.515Z,20.80
2019-06-26T01:52:36.199Z,20.70
2019-06-26T01:55:04.219Z,20.60
2019-06-26T01:57:31.911Z,20.60
2019-06-26T01:59:59.580Z,20.60
2019-06-26T02:02:27.335Z,20.50
2019-06-26T02:04:54.987Z,20.50
2019-06-26T02:07:22.724Z,20.50
2019-06-26T02:09:50.439Z,20.30
2019-06-26T02:12:18.306Z,20.40
2019-06-26T02:14:46.094Z,20.30
2019-06-26T02:17:13.771Z,20.20
2019-06-26T02:19:41.603Z,20.30
2019-06-26T02:22:09.279Z,20.30
2019-06-26T02:24:36.979Z,20.30
2019-06-26T02:27:05.168Z,20.20
2019-06-26T02:29:32.875Z,20.20
2019-06-26T02:32:00.561Z,20.20
2019-06-26T02:34:28.271Z,20.10
2019-06-26T02:36:55.990Z,20.00
2019-06-26T02:39:23.703Z,19.90
2019-06-26T02:41:51.405Z,19.80
2019-06-26T02:44:27.323Z,19.80
2019-06-26T02:46:55.296Z,19.80
2019-06-26T02:49:22.961Z,19.80
2019-06-26T02:51:50.669Z,19.80
2019-06-26T02:54:18.347Z,19.70
2019-06-26T02:56:46.067Z,19.70
2019-06-26T02:59:13.787Z,19.70
2019-06-26T03:01:41.544Z,19.70
2019-06-26T03:04:09.348Z,19.70
2019-06-26T03:06:37.022Z,19.90
2019-06-26T03:09:06.253Z,20.00
2019-06-26T03:12:54.668Z,20.10
2019-06-26T03:15:22.515Z,20.30
2019-06-26T03:17:55.206Z,20.30
2019-06-26T03:20:33.755Z,20.30
2019-06-26T03:23:01.422Z,20.30
2019-06-26T03:25:29.127Z,20.20
2019-06-26T03:27:56.960Z,20.20
2019-06-26T03:30:24.654Z,20.20
2019-06-26T03:32:52.391Z,20.30
2019-06-26T03:35:20.093Z,20.30
2019-06-26T03:37:47.780Z,20.30
2019-06-26T03:40:15.835Z,20.30
2019-06-26T03:42:43.587Z,20.20
2019-06-26T03:45:24.427Z,20.20
2019-06-26T03:47:41.395Z,20.20
2019-06-26T03:50:09.295Z,20.20
2019-06-26T03:52:37.116Z,20.20
2019-06-26T03:55:06.915Z,20.10
2019-06-26T03:57:35.450Z,20.00
2019-06-26T04:00:05.107Z,19.80
2019-06-26T04:02:33.008Z,19.80
2019-06-26T04:05:00.829Z,19.80
2019-06-26T04:07:28.627Z,19.80
2019-06-26T04:09:56.300Z,19.80
2019-06-26T04:12:24.030Z,19.80
2019-06-26T04:14:51.728Z,19.80
2019-06-26T04:17:19.405Z,19.80
2019-06-26T04:19:57.537Z,19.80
2019-06-26T04:22:33.237Z,19.90
2019-06-26T04:25:10.117Z,19.90
2019-06-26T04:28:12.430Z,19.80
2019-06-26T04:30:50.391Z,19.90
2019-06-26T04:33:30.759Z,20.10
2019-06-26T04:36:10.823Z,20.30
2019-06-26T04:38:38.603Z,20.50
2019-06-26T04:41:17.081Z,20.70
2019-06-26T04:43:55.655Z,20.90
2019-06-26T04:46:30.693Z,21.20
2019-06-26T04:49:11.551Z,21.50
2019-06-26T04:51:54.748Z,21.70
2019-06-26T04:54:47.715Z,21.90
2019-06-26T04:57:26.409Z,22.20
2019-06-26T05:00:08.067Z,22.40
2019-06-26T05:02:45.847Z,22.60
2019-06-26T05:05:39.475Z,22.80
2019-06-26T05:08:11.431Z,23.10
2019-06-26T05:10:49.362Z,23.40
2019-06-26T05:13:31.367Z,23.70
2019-06-26T05:16:14.919Z,24.00
2019-06-26T05:18:53.801Z,24.30
2019-06-26T05:21:33.702Z,24.60
2019-06-26T05:24:13.904Z,24.80
2019-06-26T05:27:13.030Z,25.10
2019-06-26T05:29:54.488Z,25.20
2019-06-26T05:32:31.535Z,25.50
2019-06-26T05:35:11.898Z,25.70
2019-06-26T05:38:02.991Z,25.90
2019-06-26T05:40:47.215Z,26.00
2019-06-26T05:43:28.062Z,26.20
2019-06-26T05:46:31.177Z,26.60
2019-06-26T05:49:13.648Z,26.90
2019-06-26T05:51:50.340Z,27.30
2019-06-26T05:54:41.002Z,27.70
2019-06-26T05:57:34.461Z,28.00
2019-06-26T06:00:21.005Z,28.20
2019-06-26T06:03:18.387Z,28.60
2019-06-26T06:06:03.333Z,28.70
2019-06-26T06:08:43.022Z,29.10
2019-06-26T06:11:22.219Z,29.30
2019-06-26T06:14:03.824Z,29.50
2019-06-26T06:16:47.265Z,29.60
2019-06-26T06:19:23.318Z,30.00
2019-06-26T06:22:12.328Z,30.10
2019-06-26T06:24:52.861Z,30.30
2019-06-26T06:31:04.473Z,30.60
2019-06-26T06:33:44.106Z,31.10
2019-06-26T06:36:30.427Z,31.30
2019-06-26T06:38:58.392Z,31.50
2019-06-26T06:41:43.483Z,31.70
2019-06-26T06:44:21.939Z,31.90
2019-06-26T06:47:03.784Z,32.20
2019-06-26T06:49:37.364Z,32.40
2019-06-26T06:52:20.959Z,32.70
2019-06-26T06:58:17.763Z,33.10
2019-06-26T07:00:53.659Z,33.20
2019-06-26T07:03:38.374Z,33.40
2019-06-26T07:06:26.487Z,33.70
2019-06-26T07:09:06.875Z,33.80
2019-06-26T07:11:43.935Z,33.90
2019-06-26T07:14:23.769Z,34.30
2019-06-26T07:17:19.285Z,34.30
2019-06-26T07:19:49.885Z,34.10
2019-06-26T07:26:06.182Z,34.40
2019-06-26T07:28:45.691Z,34.40
2019-06-26T07:31:40.184Z,34.50
2019-06-26T07:34:13.213Z,34.40
2019-06-26T07:36:41.007Z,34.60
2019-06-26T07:39:14.247Z,34.70
2019-06-26T07:41:42.047Z,34.80
2019-06-26T07:44:09.841Z,34.90
2019-06-26T07:46:38.372Z,35.00
2019-06-26T07:49:13.988Z,35.00
2019-06-26T07:51:41.689Z,35.20
2019-06-26T07:54:09.410Z,35.30
2019-06-26T07:56:37.410Z,35.60
2019-06-26T07:59:05.899Z,35.70
2019-06-26T08:01:34.091Z,35.80
2019-06-26T08:04:01.839Z,36.00
2019-06-26T08:06:30.339Z,36.30
2019-06-26T08:08:58.397Z,36.60
2019-06-26T08:11:26.116Z,36.60
2019-06-26T08:13:55.880Z,36.70
2019-06-26T08:16:24.329Z,36.80
2019-06-26T08:18:54.791Z,37.10
2019-06-26T08:21:24.506Z,37.30
2019-06-26T08:23:53.456Z,37.20
2019-06-26T08:26:45.234Z,37.20
2019-06-26T08:29:13.646Z,37.20
2019-06-26T08:31:42.379Z,37.40
2019-06-26T08:34:10.141Z,37.20
2019-06-26T08:36:37.895Z,37.30
2019-06-26T08:39:06.720Z,37.40
2019-06-26T08:41:34.514Z,37.40
2019-06-26T08:44:07.793Z,37.60
2019-06-26T08:46:35.835Z,37.70
2019-06-26T08:49:03.664Z,37.70
2019-06-26T08:51:31.826Z,37.80
2019-06-26T08:54:04.846Z,37.80
2019-06-26T08:56:32.465Z,37.80
2019-06-26T08:59:00.130Z,37.90
2019-06-26T09:01:30.493Z,38.30
2019-06-26T09:03:58.208Z,38.40
2019-06-26T09:06:32.093Z,38.40
2019-06-26T09:08:59.944Z,38.50
2019-06-26T09:11:35.392Z,38.60
2019-06-26T09:14:03.299Z,38.50
2019-06-26T09:16:31.035Z,38.50
2019-06-26T09:19:11.451Z,38.70
2019-06-26T09:21:39.131Z,38.80
2019-06-26T09:24:07.377Z,38.90
2019-06-26T09:26:49.070Z,39.00
2019-06-26T09:29:23.981Z,39.10
2019-06-26T09:31:55.236Z,39.10
2019-06-26T09:42:11.230Z,38.80
2019-06-26T09:44:50.697Z,38.30
2019-06-26T09:47:38.651Z,38.10
2019-06-26T09:50:26.818Z,38.10
2019-06-26T09:53:05.654Z,38.00
2019-06-26T09:55:46.825Z,37.90
2019-06-26T09:58:35.224Z,38.00
2019-06-26T10:01:16.483Z,38.10
2019-06-26T10:03:57.759Z,38.30
2019-06-26T10:06:36.493Z,38.40
2019-06-26T10:09:19.129Z,38.30
2019-06-26T10:12:06.500Z,38.40
2019-06-26T10:14:47.971Z,38.50
2019-06-26T10:17:28.384Z,38.60
2019-06-26T10:20:18.217Z,38.60
2019-06-26T10:23:01.530Z,38.70
2019-06-26T10:25:41.701Z,38.70
2019-06-26T10:28:10.122Z,38.70
2019-06-26T10:31:00.641Z,38.80
2019-06-26T10:33:39.965Z,38.90
2019-06-26T10:36:24.188Z,39.10
2019-06-26T10:39:01.865Z,39.30
2019-06-26T10:41:46.348Z,39.40
2019-06-26T10:44:24.701Z,39.70
2019-06-26T10:47:03.103Z,39.80
2019-06-26T10:49:30.895Z,39.90
2019-06-26T16:27:38.081Z,38.30
2019-06-26T16:30:06.107Z,38.30
2019-06-26T16:34:10.944Z,38.00
2019-06-26T16:36:38.737Z,37.10
2019-06-26T16:39:06.998Z,36.90
2019-06-26T16:41:34.891Z,36.80
2019-06-26T16:44:02.696Z,36.80
2019-06-26T16:46:30.419Z,36.90
2019-06-26T16:48:58.117Z,37.00
2019-06-26T16:51:25.834Z,37.10
2019-06-26T16:53:53.556Z,37.20
2019-06-26T16:56:21.288Z,37.20
2019-06-26T16:58:49.017Z,37.10
2019-06-26T17:01:16.863Z,37.00
2019-06-26T17:03:44.572Z,37.00
2019-06-26T17:06:12.448Z,37.00
2019-06-26T17:08:40.182Z,37.00
2019-06-26T17:11:07.933Z,37.00
2019-06-26T17:13:35.616Z,37.00
2019-06-26T17:16:03.370Z,37.00
2019-06-26T17:18:31.058Z,36.90
2019-06-26T17:20:58.784Z,36.80
2019-06-26T17:23:27.316Z,36.80
2019-06-26T17:25:55.053Z,36.70
2019-06-26T17:28:31.115Z,36.70
2019-06-26T17:31:00.912Z,36.70
2019-06-26T17:33:28.940Z,36.60
2019-06-26T17:35:56.635Z,36.50
2019-06-26T17:38:24.562Z,36.50
2019-06-26T17:40:52.223Z,36.40
2019-06-26T17:43:20.351Z,36.40
2019-06-26T17:45:48.043Z,36.30
2019-06-26T17:48:16.177Z,36.30
2019-06-26T17:50:44.259Z,36.20
2019-06-26T17:53:20.997Z,36.10
2019-06-26T17:55:42.094Z,36.10
2019-06-26T17:58:09.821Z,36.00
2019-06-26T18:00:37.509Z,35.90
2019-06-26T18:03:05.225Z,35.90
2019-06-26T18:05:32.914Z,35.80
2019-06-26T18:08:00.616Z,35.80
2019-06-26T18:10:28.313Z,35.70
2019-06-26T18:12:56.039Z,35.70
2019-06-26T18:15:23.778Z,35.70
2019-06-26T18:17:51.535Z,35.60
2019-06-26T18:20:20.031Z,35.60
2019-06-26T18:22:47.780Z,35.50
2019-06-26T18:25:16.670Z,35.50
2019-06-26T18:27:44.670Z,35.40
2019-06-26T18:30:13.044Z,35.40
2019-06-26T18:32:40.815Z,35.40
2019-06-26T18:35:09.294Z,35.30
2019-06-26T18:37:36.994Z,35.30
2019-06-26T18:40:06.445Z,35.20
2019-06-26T18:42:35.063Z,35.20
2019-06-26T18:45:03.135Z,35.20
2019-06-26T18:47:31.583Z,35.20
2019-06-26T18:49:59.685Z,35.10
2019-06-26T18:52:27.464Z,35.00
2019-06-26T18:54:55.476Z,35.00
2019-06-26T18:57:23.217Z,35.00
2019-06-26T18:59:51.482Z,34.90
2019-06-26T19:02:19.177Z,34.90
2019-06-26T19:04:46.900Z,34.90
2019-06-26T19:07:14.609Z,34.80
2019-06-26T19:09:42.411Z,34.80
2019-06-26T19:12:11.590Z,34.70
2019-06-26T19:14:39.292Z,34.60
2019-06-26T19:17:07.039Z,34.50
2019-06-26T19:19:40.933Z,34.60
2019-06-26T19:22:08.639Z,34.50
2019-06-26T19:24:36.970Z,34.60
2019-06-26T19:27:07.586Z,34.50
2019-06-26T19:29:34.517Z,34.30
2019-06-26T19:32:02.222Z,34.20
2019-06-26T19:34:30.664Z,34.10
2019-06-26T19:36:58.416Z,34.00
2019-06-26T19:39:26.144Z,34.00
2019-06-26T19:41:53.831Z,33.90
2019-06-26T19:44:22.002Z,33.60
2019-06-26T19:46:49.754Z,33.20
2019-06-26T19:49:17.452Z,33.10
2019-06-26T19:51:45.565Z,33.00
2019-06-26T19:54:26.427Z,33.00
2019-06-26T19:56:43.108Z,33.00
2019-06-26T19:59:13.075Z,32.90
2019-06-26T20:01:40.860Z,32.90
2019-06-26T20:04:08.565Z,32.90
2019-06-26T20:06:36.276Z,32.90
2019-06-26T20:09:05.584Z,32.80
2019-06-26T20:11:33.289Z,32.60
2019-06-26T20:14:01.059Z,32.50
2019-06-26T20:16:28.780Z,32.40
2019-06-26T20:18:57.404Z,32.30
2019-06-26T20:21:25.246Z,32.20
2019-06-26T20:23:52.939Z,32.10
2019-06-26T20:26:21.031Z,32.00
2019-06-26T20:28:48.710Z,31.90
2019-06-26T20:31:16.416Z,31.70
2019-06-26T20:33:44.530Z,31.60
2019-06-26T20:36:12.289Z,31.50
2019-06-26T20:38:40.067Z,31.40
2019-06-26T20:41:07.848Z,31.20
2019-06-26T20:43:35.547Z,31.10
2019-06-26T20:46:03.259Z,31.00
2019-06-26T20:48:30.995Z,30.80
2019-06-26T20:50:58.683Z,30.80
2019-06-26T20:53:27.959Z,30.70
2019-06-26T20:55:55.910Z,30.60
2019-06-26T20:58:23.706Z,30.60
2019-06-26T21:00:51.453Z,30.60
2019-06-26T21:03:21.199Z,30.50
2019-06-26T21:05:49.055Z,30.40
2019-06-26T21:08:16.776Z,30.30
2019-06-26T21:10:44.489Z,30.10
2019-06-26T21:13:12.195Z,30.00
2019-06-26T21:15:39.979Z,29.80
2019-06-26T21:18:08.182Z,29.60
2019-06-26T21:20:36.076Z,29.40
2019-06-26T21:23:03.783Z,29.10
2019-06-26T21:25:31.511Z,28.90
2019-06-26T21:27:59.715Z,28.70
2019-06-26T21:30:27.438Z,28.50
2019-06-26T21:32:55.137Z,28.40
2019-06-26T21:35:22.861Z,28.30
2019-06-26T21:37:50.584Z,28.20
2019-06-26T21:40:18.425Z,28.20
2019-06-26T21:42:46.160Z,28.20
2019-06-26T21:45:13.945Z,28.20
2019-06-26T21:47:41.653Z,28.20
2019-06-26T21:50:09.417Z,28.20
2019-06-26T21:52:37.134Z,28.20
2019-06-26T21:55:05.108Z,28.20
2019-06-26T21:57:32.827Z,28.20
2019-06-26T22:00:00.645Z,28.20
2019-06-26T22:02:28.374Z,28.30
2019-06-26T22:04:56.171Z,28.20
2019-06-26T22:07:24.208Z,28.20
2019-06-26T22:09:52.009Z,28.20
2019-06-26T22:12:19.918Z,28.20
2019-06-26T22:14:47.697Z,28.10
2019-06-26T22:17:15.498Z,28.00
2019-06-26T22:19:43.260Z,27.90
2019-06-26T22:22:11.019Z,27.90
2019-06-26T22:24:39.139Z,28.00
2019-06-26T22:27:06.924Z,28.00
2019-06-26T22:29:34.633Z,28.00
2019-06-26T22:32:02.388Z,27.90
2019-06-26T22:34:30.090Z,27.90
2019-06-26T22:36:57.890Z,27.90
2019-06-26T22:39:25.598Z,27.90
2019-06-26T22:41:53.302Z,27.90
2019-06-26T22:44:21.007Z,27.90
2019-06-26T22:46:49.941Z,27.80
2019-06-26T22:49:17.634Z,27.80
2019-06-26T22:51:45.781Z,27.70
2019-06-26T22:54:13.565Z,27.80
2019-06-26T22:56:41.496Z,27.70
2019-06-26T22:59:09.249Z,27.70
2019-06-26T23:01:36.938Z,27.70
2019-06-26T23:04:04.645Z,27.70
2019-06-26T23:06:32.348Z,27.50
2019-06-26T23:09:00.037Z,27.50
2019-06-26T23:11:27.981Z,27.50
2019-06-26T23:13:55.695Z,27.50
2019-06-26T23:16:23.373Z,27.40
2019-06-26T23:18:51.195Z,27.50
2019-06-26T23:21:18.835Z,27.50
2019-06-26T23:23:46.540Z,27.40
2019-06-26T23:26:23.513Z,27.40
2019-06-26T23:28:43.763Z,27.30
2019-06-26T23:31:11.533Z,27.20
2019-06-26T23:33:39.297Z,27.20
2019-06-26T23:36:07.010Z,27.10
2019-06-26T23:38:34.815Z,27.10
2019-06-26T23:41:02.484Z,27.10
2019-06-26T23:43:30.197Z,27.10
2019-06-26T23:45:57.880Z,27.00
2019-06-26T23:48:25.589Z,27.00
2019-06-26T23:50:53.272Z,26.90
2019-06-26T23:53:21.428Z,26.90
2019-06-26T23:55:49.137Z,26.90
2019-06-26T23:58:16.845Z,26.80
